Time;durP1;ratioP1;P1;durP2;ratioP2;P2;SDS_P1;SDS_P2;PMS_P1;PMS_P2;Temp;Humidity;BMP_temperature;BMP_pressure;BME280_temperature;BME280_humidity;BME280_pressure;Samples;Min_cycle;Max_cycle;Signal;HPM_P1;HPM_P2
2024/02/20 00:00:17;;;;;;;37.17;26.33;;;10.60;99.90;;;;;;4951419;28;20047;-55
2024/02/20 00:02:43;;;;;;;36.85;25.92;;;10.60;99.90;;;;;;4927964;28;20050;-56
2024/02/20 00:05:09;;;;;;;35.10;25.50;;;10.70;99.90;;;;;;4961960;28;20042;-56
2024/02/20 00:07:39;;;;;;;36.35;24.98;;;10.80;99.90;;;;;;4967036;28;20046;-57
2024/02/20 00:10:09;;;;;;;31.75;23.70;;;10.80;99.90;;;;;;4973514;28;20034;-59
2024/02/20 00:12:39;;;;;;;33.75;24.13;;;10.80;99.90;;;;;;4884832;28;20411;-56
2024/02/20 00:15:06;;;;;;;32.65;23.95;;;10.80;99.90;;;;;;4969967;28;20024;-54
2024/02/20 00:17:33;;;;;;;36.13;23.95;;;10.80;99.90;;;;;;4935140;28;20057;-59
2024/02/20 00:19:59;;;;;;;33.67;25.50;;;10.80;99.90;;;;;;4968132;28;20049;-54
2024/02/20 00:22:25;;;;;;;34.20;25.13;;;10.80;99.90;;;;;;4966705;28;20039;-57
2024/02/20 00:24:52;;;;;;;32.50;23.80;;;10.80;99.90;;;;;;4930726;29;20054;-58
2024/02/20 00:27:17;;;;;;;33.92;24.38;;;10.60;99.90;;;;;;4923928;29;20099;-52
2024/02/20 00:29:43;;;;;;;33.75;23.25;;;10.60;99.90;;;;;;4927058;29;20043;-54
2024/02/20 00:32:09;;;;;;;33.47;23.85;;;10.50;99.90;;;;;;4894344;29;20171;-59
2024/02/20 00:34:35;;;;;;;32.75;23.35;;;10.60;99.90;;;;;;4923422;29;20046;-56
2024/02/20 00:37:01;;;;;;;32.47;23.65;;;10.60;99.90;;;;;;4921622;29;20076;-51
2024/02/20 00:39:27;;;;;;;32.03;23.33;;;10.50;99.90;;;;;;4925706;29;20082;-50
2024/02/20 00:41:53;;;;;;;32.17;23.83;;;10.50;99.90;;;;;;4925750;29;20035;-53
2024/02/20 00:44:19;;;;;;;28.92;24.00;;;10.50;99.90;;;;;;4922381;29;20123;-57
2024/02/20 00:46:45;;;;;;;29.42;22.52;;;10.60;99.90;;;;;;4920929;29;20563;-55
2024/02/20 00:49:11;;;;;;;29.65;23.02;;;10.60;99.90;;;;;;4924020;29;20051;-60
2024/02/20 00:51:37;;;;;;;33.90;22.83;;;10.70;99.90;;;;;;4922833;29;20196;-55
2024/02/20 00:54:04;;;;;;;27.98;22.58;;;10.80;99.90;;;;;;4916467;29;20146;-53
2024/02/20 00:56:30;;;;;;;30.88;23.98;;;10.80;99.90;;;;;;4916208;28;20043;-54
2024/02/20 00:58:55;;;;;;;30.17;24.73;;;10.80;99.90;;;;;;4963998;28;20023;-55
2024/02/20 01:01:21;;;;;;;32.55;23.10;;;10.90;99.90;;;;;;4960847;28;20033;-51
2024/02/20 01:03:48;;;;;;;27.13;22.05;;;10.90;99.90;;;;;;4971042;28;20178;-52
2024/02/20 01:06:13;;;;;;;27.23;21.98;;;10.90;99.90;;;;;;4963098;28;20101;-54
2024/02/20 01:08:39;;;;;;;29.48;22.85;;;11.00;99.90;;;;;;4961128;28;20483;-54
2024/02/20 01:11:06;;;;;;;26.27;22.17;;;10.90;99.90;;;;;;4958804;28;20087;-53
2024/02/20 01:13:32;;;;;;;28.73;21.95;;;11.00;99.90;;;;;;4967608;28;20038;-57
2024/02/20 01:15:58;;;;;;;27.77;22.35;;;10.90;99.90;;;;;;4966748;28;20533;-55
2024/02/20 01:18:25;;;;;;;28.70;21.23;;;10.90;99.90;;;;;;4963616;28;20039;-53
2024/02/20 01:20:51;;;;;;;29.30;22.52;;;10.90;99.90;;;;;;4947536;28;20521;-54
2024/02/20 01:23:17;;;;;;;26.65;20.45;;;11.00;99.90;;;;;;4927080;29;20043;-52
2024/02/20 01:25:43;;;;;;;28.10;22.40;;;11.00;99.90;;;;;;4966185;28;20036;-59
2024/02/20 01:28:10;;;;;;;23.92;20.45;;;11.00;99.90;;;;;;4962709;28;20520;-51
2024/02/20 01:30:36;;;;;;;27.98;20.60;;;11.00;99.90;;;;;;4963561;28;20114;-54
2024/02/20 01:33:02;;;;;;;25.25;21.17;;;11.00;99.90;;;;;;4975100;28;20035;-58
2024/02/20 01:35:28;;;;;;;24.52;19.90;;;11.10;99.90;;;;;;4970482;28;20038;-58
2024/02/20 01:37:56;;;;;;;26.60;21.05;;;11.10;99.90;;;;;;4969770;28;20399;-56
2024/02/20 01:40:22;;;;;;;28.92;20.98;;;11.00;99.90;;;;;;4970028;28;20606;-53
2024/02/20 01:42:59;;;;;;;24.92;21.33;;;10.90;99.90;;;;;;4968387;28;20035;-56
2024/02/20 01:45:26;;;;;;;27.75;21.58;;;10.90;99.90;;;;;;4963056;28;20038;-54
2024/02/20 01:47:52;;;;;;;27.05;21.08;;;10.90;99.90;;;;;;4972305;28;20062;-56
2024/02/20 01:50:18;;;;;;;27.80;21.50;;;10.90;99.90;;;;;;4973601;28;20039;-54
2024/02/20 01:52:45;;;;;;;27.80;21.73;;;10.90;99.90;;;;;;4968232;28;20045;-54
2024/02/20 01:55:11;;;;;;;25.52;21.38;;;11.00;99.90;;;;;;4976068;28;20055;-55
2024/02/20 01:57:38;;;;;;;28.13;21.70;;;11.00;99.90;;;;;;4994055;28;20022;-56
2024/02/20 02:00:05;;;;;;;26.45;21.50;;;10.90;99.90;;;;;;4990436;28;20034;-58
2024/02/20 02:02:31;;;;;;;27.40;21.52;;;11.00;99.90;;;;;;4984027;28;20482;-50
2024/02/20 02:04:57;;;;;;;27.17;20.67;;;11.00;99.90;;;;;;4982471;28;20032;-59
2024/02/20 02:07:23;;;;;;;24.10;20.20;;;11.00;99.90;;;;;;4967883;28;20042;-53
2024/02/20 02:09:49;;;;;;;23.77;19.83;;;11.00;99.90;;;;;;4986014;28;20039;-56
2024/02/20 02:12:14;;;;;;;25.63;19.50;;;10.90;99.90;;;;;;4991898;28;20496;-52
2024/02/20 02:14:45;;;;;;;25.88;20.45;;;11.00;99.90;;;;;;4985773;28;20026;-58
2024/02/20 02:17:12;;;;;;;25.42;18.58;;;11.00;99.90;;;;;;4984656;28;20417;-53
2024/02/20 02:19:38;;;;;;;22.23;18.73;;;10.60;99.90;;;;;;4951599;28;20042;-58
2024/02/20 02:22:05;;;;;;;25.35;20.00;;;10.60;99.90;;;;;;4993447;28;20026;-55
2024/02/20 02:24:31;;;;;;;26.63;21.08;;;10.50;99.90;;;;;;4985406;28;20081;-57
2024/02/20 02:26:56;;;;;;;24.00;20.30;;;10.30;99.90;;;;;;4983271;28;20446;-59
2024/02/20 02:29:22;;;;;;;26.88;22.48;;;10.30;99.90;;;;;;4984613;28;20054;-56
2024/02/20 02:31:48;;;;;;;28.35;22.05;;;10.40;99.90;;;;;;4987795;28;20117;-56
2024/02/20 02:34:13;;;;;;;27.00;21.80;;;10.10;99.90;;;;;;4987238;28;20054;-51
2024/02/20 02:36:39;;;;;;;25.65;21.48;;;10.20;99.90;;;;;;4992121;28;20030;-50
2024/02/20 02:39:05;;;;;;;24.83;20.35;;;10.20;99.90;;;;;;4989072;28;20497;-51
2024/02/20 02:41:30;;;;;;;24.33;19.83;;;10.20;99.90;;;;;;4983909;28;20046;-58
2024/02/20 02:43:56;;;;;;;21.67;18.05;;;10.20;99.90;;;;;;4946633;28;20065;-54
2024/02/20 02:46:22;;;;;;;23.67;18.52;;;10.20;99.90;;;;;;4984944;28;20394;-57
2024/02/20 02:48:50;;;;;;;22.20;18.25;;;10.20;99.90;;;;;;4989743;28;20117;-57
2024/02/20 02:51:16;;;;;;;22.52;18.00;;;10.10;99.90;;;;;;4982635;28;20122;-59
2024/02/20 02:53:42;;;;;;;21.70;17.58;;;10.10;99.90;;;;;;4984381;28;20030;-61
2024/02/20 02:56:13;;;;;;;20.55;18.35;;;10.10;99.90;;;;;;4985912;28;20096;-57
2024/02/20 02:58:40;;;;;;;20.75;17.80;;;10.10;99.90;;;;;;4988916;28;20034;-58
2024/02/20 03:01:09;;;;;;;21.67;17.30;;;10.20;99.90;;;;;;4984597;28;20026;-59
2024/02/20 03:03:35;;;;;;;19.92;17.50;;;10.20;99.90;;;;;;4989691;28;20065;-59
2024/02/20 03:06:08;;;;;;;18.83;16.48;;;10.20;99.90;;;;;;4948492;28;20081;-51
2024/02/20 03:08:38;;;;;;;18.92;15.68;;;10.20;99.90;;;;;;4990754;28;20066;-53
2024/02/20 03:11:07;;;;;;;19.85;16.58;;;10.30;99.90;;;;;;4983360;28;20475;-55
2024/02/20 03:13:36;;;;;;;19.70;16.60;;;10.20;99.90;;;;;;4932870;28;20388;-54
2024/02/20 03:16:03;;;;;;;19.77;16.45;;;10.30;99.90;;;;;;4949684;28;20122;-53
2024/02/20 03:18:32;;;;;;;21.48;17.15;;;10.20;99.90;;;;;;4984771;28;20038;-52
2024/02/20 03:21:00;;;;;;;18.35;15.93;;;10.30;99.90;;;;;;4981070;28;20418;-54
2024/02/20 03:23:27;;;;;;;19.52;15.90;;;10.30;99.90;;;;;;4987083;28;20030;-50
2024/02/20 03:25:53;;;;;;;20.67;16.38;;;10.20;99.90;;;;;;4984387;28;20030;-58
2024/02/20 03:28:19;;;;;;;20.63;16.60;;;10.20;99.90;;;;;;4930047;28;20050;-58
2024/02/20 03:30:44;;;;;;;18.02;15.98;;;10.30;99.90;;;;;;4987958;28;20034;-54
2024/02/20 03:33:10;;;;;;;18.85;16.25;;;10.30;99.90;;;;;;4981678;28;20518;-60
2024/02/20 03:35:36;;;;;;;17.45;15.55;;;10.30;99.90;;;;;;4986509;28;20032;-56
2024/02/20 03:38:02;;;;;;;18.40;15.80;;;10.30;99.90;;;;;;4980655;28;20387;-54
2024/02/20 03:40:28;;;;;;;17.95;15.15;;;10.20;99.90;;;;;;4984295;28;20496;-58
2024/02/20 03:42:53;;;;;;;17.92;15.35;;;10.20;99.90;;;;;;4986549;28;20145;-56
2024/02/20 03:45:19;;;;;;;17.08;15.27;;;10.20;99.90;;;;;;4970098;28;20042;-54
2024/02/20 03:47:45;;;;;;;17.00;15.10;;;10.30;99.90;;;;;;4984320;28;20034;-55
2024/02/20 03:50:11;;;;;;;19.23;16.58;;;10.30;99.90;;;;;;4952472;28;20097;-53
2024/02/20 03:52:37;;;;;;;20.45;15.07;;;10.30;99.90;;;;;;4983427;28;20038;-50
2024/02/20 03:55:03;;;;;;;16.58;14.77;;;10.40;99.90;;;;;;4987637;28;20089;-57
2024/02/20 03:57:28;;;;;;;18.00;14.23;;;10.40;99.90;;;;;;4987811;28;20038;-54
2024/02/20 03:59:56;;;;;;;19.90;14.95;;;10.30;99.90;;;;;;4991314;28;20410;-55
2024/02/20 04:02:22;;;;;;;16.70;14.45;;;10.30;99.90;;;;;;4984078;28;20039;-55
2024/02/20 04:04:48;;;;;;;17.65;13.77;;;10.30;99.90;;;;;;4976389;28;20035;-56
2024/02/20 04:07:16;;;;;;;16.30;14.02;;;10.30;99.90;;;;;;4978831;28;20420;-54
2024/02/20 04:09:42;;;;;;;17.55;13.80;;;10.30;99.90;;;;;;4981930;28;20117;-59
2024/02/20 04:12:07;;;;;;;15.93;13.65;;;10.30;99.90;;;;;;4951977;28;20126;-56
2024/02/20 04:14:33;;;;;;;17.40;13.15;;;10.30;99.90;;;;;;4989553;28;20062;-59
2024/02/20 04:16:59;;;;;;;15.45;13.73;;;10.30;99.90;;;;;;4981687;28;20398;-52
2024/02/20 04:19:25;;;;;;;16.30;13.45;;;10.20;99.90;;;;;;4983671;28;20054;-57
2024/02/20 04:21:50;;;;;;;17.33;13.75;;;10.20;99.90;;;;;;4989178;28;20387;-55
2024/02/20 04:24:16;;;;;;;17.67;13.30;;;10.20;99.90;;;;;;4980484;28;20731;-56
2024/02/20 04:26:42;;;;;;;17.90;13.88;;;10.20;99.90;;;;;;4983960;28;20504;-54
2024/02/20 04:29:07;;;;;;;16.30;12.90;;;10.20;99.90;;;;;;4983555;28;20078;-53
2024/02/20 04:31:33;;;;;;;14.90;12.43;;;10.20;99.90;;;;;;4984616;28;20073;-54
2024/02/20 04:33:59;;;;;;;15.52;12.55;;;10.20;99.90;;;;;;4954435;28;20047;-60
2024/02/20 04:36:25;;;;;;;15.35;12.73;;;10.20;99.90;;;;;;4979871;28;20500;-54
2024/02/20 04:38:56;;;;;;;14.18;12.38;;;10.20;99.90;;;;;;4986719;28;20038;-53
2024/02/20 04:41:28;;;;;;;15.90;12.83;;;10.10;99.90;;;;;;4983349;28;20034;-53
2024/02/20 04:43:54;;;;;;;13.98;12.55;;;10.00;99.90;;;;;;4992305;28;20070;-55
2024/02/20 04:46:20;;;;;;;16.00;12.35;;;10.00;99.90;;;;;;4950543;28;20084;-55
2024/02/20 04:48:46;;;;;;;16.50;12.57;;;10.10;99.90;;;;;;4989543;28;20042;-53
2024/02/20 04:51:12;;;;;;;14.88;12.52;;;10.10;99.90;;;;;;4987695;28;20039;-56
2024/02/20 04:53:38;;;;;;;15.02;11.88;;;10.10;99.90;;;;;;4984310;28;20109;-56
2024/02/20 04:56:04;;;;;;;15.18;12.50;;;10.10;99.90;;;;;;4982007;28;20041;-58
2024/02/20 04:58:30;;;;;;;14.35;12.25;;;10.10;99.90;;;;;;4920040;28;20073;-56
2024/02/20 05:00:56;;;;;;;13.75;11.95;;;10.10;99.90;;;;;;4950338;28;20038;-58
2024/02/20 05:03:22;;;;;;;15.88;12.77;;;10.00;99.90;;;;;;4980575;28;20117;-57
2024/02/20 05:05:47;;;;;;;13.40;11.88;;;10.10;99.90;;;;;;4946232;28;20471;-57
2024/02/20 05:08:13;;;;;;;14.25;11.82;;;10.10;99.90;;;;;;4987805;28;20042;-56
2024/02/20 05:10:39;;;;;;;12.85;11.48;;;10.00;99.90;;;;;;4987575;28;20026;-54
2024/02/20 05:13:04;;;;;;;13.45;11.68;;;10.00;99.90;;;;;;4985719;28;20482;-55
2024/02/20 05:15:30;;;;;;;19.60;13.82;;;10.00;99.90;;;;;;4984119;28;20061;-54
2024/02/20 05:17:56;;;;;;;14.20;11.70;;;10.00;99.90;;;;;;4987572;28;20082;-58
2024/02/20 05:20:22;;;;;;;12.57;11.27;;;10.00;99.90;;;;;;4986926;28;20035;-54
2024/02/20 05:22:49;;;;;;;14.00;12.10;;;9.90;99.90;;;;;;4987318;28;20037;-60
2024/02/20 05:25:14;;;;;;;13.75;12.13;;;9.90;99.90;;;;;;4985505;28;20033;-56
2024/02/20 05:27:40;;;;;;;14.40;12.02;;;9.90;99.90;;;;;;4982846;28;20394;-56
2024/02/20 05:30:06;;;;;;;14.27;11.52;;;9.90;99.90;;;;;;4954534;28;20042;-59
2024/02/20 05:32:32;;;;;;;13.95;11.40;;;10.00;99.90;;;;;;4988959;28;20372;-53
2024/02/20 05:34:58;;;;;;;13.15;11.18;;;10.00;99.90;;;;;;4962748;28;20089;-51
2024/02/20 05:37:23;;;;;;;14.60;10.77;;;10.00;99.90;;;;;;4987068;28;20039;-58
2024/02/20 05:39:49;;;;;;;15.00;11.57;;;10.10;99.90;;;;;;4955960;28;20066;-56
2024/02/20 05:42:15;;;;;;;20.23;17.13;;;10.10;99.90;;;;;;4985218;28;20093;-49
2024/02/20 05:44:40;;;;;;;24.83;20.60;;;10.10;99.90;;;;;;4986602;28;20097;-56
2024/02/20 05:47:06;;;;;;;16.83;13.43;;;10.10;99.90;;;;;;4984804;28;20117;-51
2024/02/20 05:49:33;;;;;;;16.25;13.55;;;10.10;99.90;;;;;;4992822;28;20030;-57
2024/02/20 05:51:59;;;;;;;13.23;11.75;;;10.20;99.90;;;;;;4938585;28;20490;-55
2024/02/20 05:54:24;;;;;;;27.17;18.65;;;10.20;99.90;;;;;;4984342;28;20510;-56
2024/02/20 05:56:50;;;;;;;39.05;31.65;;;10.20;99.90;;;;;;4983904;28;20058;-56
2024/02/20 05:59:16;;;;;;;23.75;21.08;;;10.20;99.90;;;;;;4991337;28;20475;-50
2024/02/20 06:01:42;;;;;;;21.85;19.67;;;10.20;99.90;;;;;;4965846;28;20047;-54
2024/02/20 06:04:07;;;;;;;19.10;17.27;;;10.20;99.90;;;;;;4984758;28;20467;-56
2024/02/20 06:06:34;;;;;;;15.07;13.48;;;10.30;99.90;;;;;;4990727;28;20031;-53
2024/02/20 06:09:00;;;;;;;11.88;10.45;;;10.30;99.90;;;;;;4981922;28;20047;-54
2024/02/20 06:11:29;;;;;;;11.18;10.00;;;10.30;99.90;;;;;;4984228;28;20037;-55
2024/02/20 06:13:55;;;;;;;12.38;10.15;;;10.30;99.90;;;;;;4988598;28;20506;-50
2024/02/20 06:16:25;;;;;;;11.32;9.15;;;10.40;99.90;;;;;;4988964;28;20052;-57
2024/02/20 06:18:51;;;;;;;11.25;9.45;;;10.40;99.90;;;;;;4966928;28;20410;-54
2024/02/20 06:21:17;;;;;;;11.75;9.93;;;10.50;99.90;;;;;;4990426;28;20488;-51
2024/02/20 06:23:43;;;;;;;18.67;16.63;;;10.50;99.90;;;;;;4948191;28;20038;-55
2024/02/20 06:26:09;;;;;;;13.25;10.00;;;10.50;99.90;;;;;;4982051;28;20120;-52
2024/02/20 06:28:35;;;;;;;9.77;8.77;;;10.50;99.90;;;;;;4991850;28;20122;-54
2024/02/20 06:31:03;;;;;;;10.38;9.27;;;10.40;99.90;;;;;;4948276;28;20126;-54
2024/02/20 06:33:30;;;;;;;12.63;8.75;;;10.50;99.90;;;;;;4984095;28;20038;-56
2024/02/20 06:35:56;;;;;;;11.30;8.75;;;10.50;99.90;;;;;;4995366;28;20037;-56
2024/02/20 06:38:22;;;;;;;10.85;9.13;;;10.50;99.90;;;;;;4983636;28;20026;-56
2024/02/20 06:40:48;;;;;;;11.63;8.82;;;10.50;99.90;;;;;;4992314;28;20220;-53
2024/02/20 06:43:14;;;;;;;11.68;9.57;;;10.60;99.90;;;;;;4985006;28;20431;-56
2024/02/20 06:45:40;;;;;;;11.07;8.90;;;10.60;99.90;;;;;;4987112;28;20039;-54
2024/02/20 06:48:07;;;;;;;9.65;8.57;;;10.60;99.90;;;;;;4987713;28;20402;-54
2024/02/20 06:50:32;;;;;;;10.82;8.18;;;10.60;99.90;;;;;;4993038;28;20103;-53
2024/02/20 06:52:58;;;;;;;14.55;11.18;;;10.60;99.90;;;;;;4989385;28;20115;-59
2024/02/20 06:55:24;;;;;;;16.45;14.15;;;10.70;99.90;;;;;;4994267;28;20054;-52
2024/02/20 06:57:54;;;;;;;20.02;14.18;;;10.80;99.90;;;;;;4991016;28;20099;-55
2024/02/20 07:00:20;;;;;;;13.23;11.75;;;;;;;;;;4989030;28;20126;-67
2024/02/20 07:02:46;;;;;;;13.57;10.32;;;10.90;99.90;;;;;;4982369;28;20053;-58
2024/02/20 07:05:12;;;;;;;11.52;9.68;;;10.80;99.90;;;;;;4985004;28;20066;-59
2024/02/20 07:07:39;;;;;;;11.15;9.15;;;10.90;99.90;;;;;;4985982;28;20065;-55
2024/02/20 07:10:07;;;;;;;10.77;8.55;;;11.00;99.90;;;;;;4943530;28;20038;-57
2024/02/20 07:12:33;;;;;;;11.63;8.98;;;11.00;99.90;;;;;;4979673;28;20038;-55
2024/02/20 07:15:01;;;;;;;8.57;7.38;;;11.00;99.90;;;;;;4989152;28;20088;-56
2024/02/20 07:17:27;;;;;;;10.00;8.13;;;10.80;99.90;;;;;;4987033;28;20066;-53
2024/02/20 07:19:53;;;;;;;14.43;12.70;;;10.90;99.90;;;;;;4983037;28;20069;-56
2024/02/20 07:22:19;;;;;;;14.05;10.27;;;11.00;99.90;;;;;;4973897;28;20027;-49
2024/02/20 07:24:44;;;;;;;11.40;9.50;;;11.00;99.90;;;;;;4952456;28;20375;-57
2024/02/20 07:27:10;;;;;;;11.23;8.85;;;11.00;99.90;;;;;;4988613;28;20365;-60
2024/02/20 07:29:43;;;;;;;10.82;8.35;;;11.10;99.90;;;;;;4986825;28;20070;-52
2024/02/20 07:32:10;;;;;;;11.07;8.48;;;11.20;99.90;;;;;;4988487;28;20550;-54
2024/02/20 07:34:37;;;;;;;7.53;6.20;;;11.30;99.90;;;;;;4985414;28;20121;-52
2024/02/20 07:37:04;;;;;;;10.77;7.50;;;11.30;99.90;;;;;;4949261;28;20054;-59
2024/02/20 07:39:29;;;;;;;8.35;7.20;;;11.30;99.90;;;;;;4934878;28;20395;-55
2024/02/20 07:41:55;;;;;;;19.85;13.40;;;11.30;99.90;;;;;;4984593;28;20024;-52
2024/02/20 07:44:21;;;;;;;14.40;11.65;;;11.40;99.90;;;;;;4953529;28;20038;-55
2024/02/20 07:46:47;;;;;;;10.73;8.43;;;11.30;99.90;;;;;;4987602;28;20441;-54
2024/02/20 07:49:13;;;;;;;10.18;8.38;;;11.30;99.90;;;;;;4986185;28;20053;-58
2024/02/20 07:51:39;;;;;;;10.20;8.73;;;11.30;99.90;;;;;;4985829;28;20034;-57
2024/02/20 07:54:05;;;;;;;9.35;8.18;;;11.20;99.90;;;;;;4984612;28;20050;-55
2024/02/20 07:56:31;;;;;;;11.50;8.40;;;11.20;99.90;;;;;;4987570;28;20022;-50
2024/02/20 07:58:56;;;;;;;10.00;8.35;;;11.30;99.90;;;;;;4989025;28;20363;-57
2024/02/20 08:01:24;;;;;;;11.20;8.57;;;11.20;99.90;;;;;;4989111;28;20035;-59
2024/02/20 08:03:53;;;;;;;10.90;8.40;;;11.20;99.90;;;;;;4984609;28;20035;-55
2024/02/20 08:06:20;;;;;;;11.13;8.23;;;11.20;99.90;;;;;;4984567;28;20073;-61
2024/02/20 08:08:45;;;;;;;12.82;8.68;;;11.20;99.90;;;;;;4944292;28;20193;-57
2024/02/20 08:11:12;;;;;;;10.63;8.73;;;11.30;99.90;;;;;;4966936;28;20561;-52
2024/02/20 08:13:45;;;;;;;10.00;8.15;;;;;;;;;;4985393;28;20039;-50
2024/02/20 08:16:12;;;;;;;10.27;7.88;;;;;;;;;;4948330;29;20191;-52
2024/02/20 08:18:41;;;;;;;10.60;8.07;;;;;;;;;;4947186;28;20507;-59
2024/02/20 08:21:10;;;;;;;12.52;9.75;;;;;;;;;;4946482;28;20046;-58
2024/02/20 08:23:36;;;;;;;10.15;8.95;;;;;;;;;;4944964;28;20043;-57
2024/02/20 08:26:03;;;;;;;13.32;10.18;;;;;;;;;;4949548;28;20031;-52
2024/02/20 08:28:29;;;;;;;15.15;10.20;;;;;;;;;;4941718;28;20055;-51
2024/02/20 08:30:56;;;;;;;11.10;8.00;;;;;;;;;;4938101;29;20378;-60
2024/02/20 08:33:22;;;;;;;12.35;8.52;;;;;;;;;;4943478;28;20491;-51
2024/02/20 08:35:48;;;;;;;11.15;9.02;;;;;;;;;;4948383;28;20066;-56
2024/02/20 08:38:16;;;;;;;10.55;8.32;;;11.40;99.90;;;;;;4946031;28;20063;-57
2024/02/20 08:40:42;;;;;;;12.50;9.13;;;11.40;99.90;;;;;;4920640;29;20046;-55
2024/02/20 08:43:08;;;;;;;9.98;8.50;;;11.50;99.90;;;;;;4942064;28;20420;-53
2024/02/20 08:45:34;;;;;;;10.40;8.40;;;11.40;99.90;;;;;;4948766;28;20164;-54
2024/02/20 08:48:01;;;;;;;13.63;9.57;;;11.30;99.90;;;;;;4944268;28;20065;-53
2024/02/20 08:50:27;;;;;;;15.20;10.10;;;11.30;99.90;;;;;;4981526;28;20071;-53
2024/02/20 08:52:53;;;;;;;11.80;10.40;;;11.30;99.90;;;;;;4989192;28;20072;-55
2024/02/20 08:55:19;;;;;;;12.80;9.13;;;11.50;99.90;;;;;;4912089;29;20063;-55
2024/02/20 08:57:45;;;;;;;12.90;9.50;;;;;;;;;;4940946;29;20131;-61
2024/02/20 09:00:12;;;;;;;23.42;12.07;;;;;;;;;;4938567;29;20042;-51
2024/02/20 09:02:41;;;;;;;26.40;17.15;;;;;;;;;;4913135;29;20103;-55
2024/02/20 09:05:11;;;;;;;17.58;12.43;;;;;;;;;;4944209;29;20035;-60
2024/02/20 09:07:38;;;;;;;25.85;20.77;;;;;;;;;;4937413;29;20035;-64
2024/02/20 09:10:04;;;;;;;22.75;18.75;;;;;;;;;;4949422;29;20535;-65
2024/02/20 09:12:30;;;;;;;22.95;19.75;;;;;;;;;;4928792;29;20043;-57
2024/02/20 09:14:57;;;;;;;14.00;12.38;;;;;;;;;;4934516;29;20043;-53
2024/02/20 09:17:23;;;;;;;16.63;12.93;;;;;;;;;;4945376;29;20070;-56
2024/02/20 09:19:49;;;;;;;14.38;10.88;;;;;;;;;;4947080;29;20027;-54
2024/02/20 09:22:16;;;;;;;14.98;12.20;;;;;;;;;;4945578;29;20027;-63
2024/02/20 09:24:42;;;;;;;13.52;11.25;;;;;;;;;;4942220;29;20499;-57
2024/02/20 09:27:08;;;;;;;14.80;12.25;;;;;;;;;;4966429;28;20039;-57
2024/02/20 09:29:34;;;;;;;16.85;12.23;;;;;;;;;;4968723;28;20130;-56
2024/02/20 09:32:00;;;;;;;13.82;9.95;;;;;;;;;;4906527;29;20035;-53
2024/02/20 09:34:27;;;;;;;16.98;12.65;;;;;;;;;;4963670;28;20031;-61
2024/02/20 09:36:53;;;;;;;10.80;8.55;;;;;;;;;;4965451;28;20534;-60
2024/02/20 09:39:22;;;;;;;13.38;9.93;;;;;;;;;;4957769;28;20845;-60
2024/02/20 09:41:52;;;;;;;14.07;10.07;;;;;;;;;;4966342;28;20027;-53
2024/02/20 09:44:26;;;;;;;13.18;8.82;;;12.00;99.90;;;;;;4967971;28;20140;-61
2024/02/20 09:46:55;;;;;;;17.67;11.60;;;12.10;99.90;;;;;;4969668;28;20427;-60
2024/02/20 09:49:21;;;;;;;13.45;10.23;;;11.90;99.90;;;;;;4964934;28;20031;-59
2024/02/20 09:51:47;;;;;;;11.95;10.23;;;12.10;99.90;;;;;;4967117;28;20498;-63
2024/02/20 09:54:16;;;;;;;34.55;17.98;;;12.40;99.90;;;;;;4929986;29;20044;-62
2024/02/20 09:56:43;;;;;;;18.85;12.23;;;;;;;;;;4914567;29;20075;-52
2024/02/20 09:59:10;;;;;;;11.32;10.05;;;;;;;;;;4916679;29;20032;-62
2024/02/20 10:01:37;;;;;;;13.00;9.77;;;13.00;99.90;;;;;;4915885;29;20044;-59
2024/02/20 10:04:05;;;;;;;13.25;10.32;;;13.00;99.90;;;;;;4916664;29;20155;-56
2024/02/20 10:06:31;;;;;;;15.50;10.60;;;13.40;99.90;;;;;;4916443;29;20107;-56
2024/02/20 10:08:57;;;;;;;16.65;9.75;;;;;;;;;;4916196;29;20063;-54
2024/02/20 10:11:23;;;;;;;27.48;16.95;;;;;;;;;;4916895;29;20027;-53
2024/02/20 10:13:51;;;;;;;22.30;14.20;;;13.90;99.90;;;;;;4916275;29;20040;-55
2024/02/20 10:16:18;;;;;;;58.45;28.38;;;14.00;99.90;;;;;;4917034;29;20040;-55
2024/02/20 10:18:54;;;;;;;13.30;11.25;;;14.10;99.90;;;;;;4916277;29;20104;-61
2024/02/20 10:21:20;;;;;;;36.10;16.45;;;14.30;99.90;;;;;;4914340;29;20039;-53
2024/02/20 10:23:46;;;;;;;16.05;10.02;;;13.80;99.90;;;;;;4915212;29;20392;-51
2024/02/20 10:26:19;;;;;;;10.43;8.18;;;13.90;99.90;;;;;;4937910;28;20046;-59
2024/02/20 10:28:45;;;;;;;22.42;11.32;;;13.80;99.90;;;;;;4965812;28;20125;-53
2024/02/20 10:31:11;;;;;;;25.27;14.63;;;14.00;99.90;;;;;;4955850;28;20041;-54
2024/02/20 10:33:38;;;;;;;17.92;10.98;;;13.80;99.90;;;;;;4965538;28;20028;-60
2024/02/20 10:36:04;;;;;;;13.20;8.15;;;13.90;99.90;;;;;;4964612;28;20049;-59
2024/02/20 10:38:30;;;;;;;44.28;21.90;;;13.80;99.90;;;;;;4915836;28;20137;-62
2024/02/20 10:40:58;;;;;;;6.78;4.60;;;13.90;99.90;;;;;;4964181;28;20539;-56
2024/02/20 10:43:26;;;;;;;12.43;9.10;;;13.50;99.90;;;;;;4940030;29;20044;-61
2024/02/20 10:45:53;;;;;;;18.20;8.80;;;13.70;99.90;;;;;;4914136;29;20077;-54
2024/02/20 10:48:26;;;;;;;10.55;5.97;;;13.80;99.90;;;;;;4941796;28;20071;-56
2024/02/20 10:50:53;;;;;;;10.32;7.63;;;13.90;99.90;;;;;;4950220;29;20027;-56
2024/02/20 10:53:20;;;;;;;9.63;6.07;;;13.90;99.90;;;;;;4947299;28;20468;-54
2024/02/20 10:55:51;;;;;;;7.93;5.60;;;13.90;99.90;;;;;;4958726;28;20118;-62
2024/02/20 10:58:17;;;;;;;7.20;6.38;;;14.00;99.90;;;;;;4965249;28;20035;-53
2024/02/20 11:00:46;;;;;;;9.40;6.53;;;14.30;99.90;;;;;;4968395;28;20029;-61
2024/02/20 11:03:13;;;;;;;17.63;11.15;;;14.50;99.50;;;;;;4962624;28;20049;-56
2024/02/20 11:05:39;;;;;;;10.43;5.53;;;14.60;99.10;;;;;;4916341;28;20046;-59
2024/02/20 11:08:09;;;;;;;10.43;6.82;;;14.80;98.20;;;;;;4962894;28;20578;-60
2024/02/20 11:10:35;;;;;;;9.02;6.65;;;14.60;98.10;;;;;;4966317;28;20037;-56
2024/02/20 11:13:33;;;;;;;8.57;5.03;;;14.90;98.40;;;;;;4963495;28;20053;-55
2024/02/20 11:16:11;;;;;;;9.07;6.35;;;15.00;97.60;;;;;;4955216;28;20085;-52
2024/02/20 11:18:58;;;;;;;14.00;9.63;;;;;;;;;;4937828;28;20398;-60
2024/02/20 11:21:28;;;;;;;8.75;6.03;;;15.30;97.00;;;;;;4978759;28;20073;-61
2024/02/20 11:23:55;;;;;;;8.00;6.18;;;15.50;96.60;;;;;;4990491;28;20113;-54
2024/02/20 11:26:32;;;;;;;9.50;6.40;;;15.90;97.00;;;;;;4982520;28;20029;-65
2024/02/20 11:28:58;;;;;;;5.57;4.20;;;15.90;95.20;;;;;;4980279;28;20490;-53
2024/02/20 11:31:28;;;;;;;9.88;5.63;;;16.00;94.70;;;;;;4976722;28;20435;-54
2024/02/20 11:33:58;;;;;;;6.82;5.35;;;16.10;94.50;;;;;;4962484;28;20450;-60
2024/02/20 11:36:24;;;;;;;5.57;4.78;;;15.70;94.90;;;;;;4982433;28;20178;-53
2024/02/20 11:39:02;;;;;;;7.20;4.80;;;;;;;;;;4981571;28;20455;-57
2024/02/20 11:41:32;;;;;;;9.45;5.20;;;16.40;94.00;;;;;;4988986;28;20033;-58
2024/02/20 11:44:05;;;;;;;15.88;7.25;;;16.80;94.20;;;;;;4985958;28;20049;-53
2024/02/20 11:46:32;;;;;;;10.73;6.80;;;16.30;93.30;;;;;;4985818;28;20027;-61
2024/02/20 11:48:59;;;;;;;10.60;6.95;;;15.90;94.30;;;;;;4978871;28;20511;-54
2024/02/20 11:51:25;;;;;;;7.82;4.93;;;16.20;94.20;;;;;;4990488;28;20093;-57
2024/02/20 11:54:11;;;;;;;13.50;6.68;;;15.80;94.40;;;;;;4984934;28;20050;-56
2024/02/20 11:56:39;;;;;;;7.70;5.28;;;14.90;95.20;;;;;;4984017;28;20034;-62
2024/02/20 11:59:07;;;;;;;11.98;7.05;;;14.80;95.80;;;;;;4977727;28;20026;-59
2024/02/20 12:01:34;;;;;;;18.27;9.73;;;14.60;96.20;;;;;;4979057;28;20038;-59
2024/02/20 12:04:06;;;;;;;7.03;5.32;;;14.60;97.30;;;;;;4979186;28;20104;-49
2024/02/20 12:06:35;;;;;;;9.38;6.50;;;14.40;96.70;;;;;;4986068;28;20026;-61
2024/02/20 12:09:01;;;;;;;8.93;4.20;;;14.70;97.00;;;;;;4984292;28;20482;-56
2024/02/20 12:11:29;;;;;;;8.07;6.07;;;14.70;96.00;;;;;;4983378;28;20038;-52
2024/02/20 12:14:01;;;;;;;4.93;3.45;;;14.80;97.10;;;;;;4958978;28;20061;-53
2024/02/20 12:16:30;;;;;;;7.70;4.90;;;14.70;95.80;;;;;;4980386;28;20031;-66
2024/02/20 12:18:57;;;;;;;6.70;4.07;;;14.70;96.30;;;;;;4985513;28;20038;-55
2024/02/20 12:21:28;;;;;;;4.60;3.15;;;14.90;95.70;;;;;;4987947;28;20038;-62
2024/02/20 12:23:58;;;;;;;5.90;2.65;;;15.20;95.40;;;;;;4984886;28;20057;-64
2024/02/20 12:26:25;;;;;;;4.03;2.80;;;15.60;94.60;;;;;;4980163;28;20493;-62
2024/02/20 12:28:52;;;;;;;5.22;3.30;;;15.80;94.40;;;;;;4984761;28;20057;-65
2024/02/20 12:31:26;;;;;;;6.68;3.28;;;15.60;92.70;;;;;;4992955;28;20035;-60
2024/02/20 12:33:52;;;;;;;8.35;2.50;;;15.40;93.50;;;;;;4943206;28;20125;-53
2024/02/20 12:36:19;;;;;;;3.38;2.58;;;15.50;93.10;;;;;;4945425;28;20043;-60
2024/02/20 12:38:45;;;;;;;6.35;3.70;;;15.30;93.30;;;;;;4944404;28;20040;-56
2024/02/20 12:41:11;;;;;;;4.03;3.60;;;15.80;94.10;;;;;;4909699;29;20043;-57